sensor_id;sensor_type;location;lat;lon;timestamp;P1;durP1;ratioP1;P2;durP2;ratioP2
2760;SDS011;15420;48.636;9.798;2022-10-31T00:01:24;5.20;;;3.90;;
2760;SDS011;15420;48.636;9.798;2022-10-31T00:03:53;4.30;;;3.50;;
2760;SDS011;15420;48.636;9.798;2022-10-31T00:06:26;5.10;;;3.40;;
2760;SDS011;15420;48.636;9.798;2022-10-31T00:08:59;4.33;;;3.47;;
2760;SDS011;15420;48.636;9.798;2022-10-31T00:11:29;4.93;;;3.77;;
2760;SDS011;15420;48.636;9.798;2022-10-31T00:13:56;9.90;;;3.57;;
2760;SDS011;15420;48.636;9.798;2022-10-31T00:16:24;5.67;;;3.47;;
2760;SDS011;15420;48.636;9.798;2022-10-31T00:18:55;5.73;;;3.50;;
2760;SDS011;15420;48.636;9.798;2022-10-31T00:21:26;6.83;;;4.00;;
2760;SDS011;15420;48.636;9.798;2022-10-31T00:23:57;7.83;;;3.90;;
2760;SDS011;15420;48.636;9.798;2022-10-31T00:26:24;5.80;;;3.30;;
2760;SDS011;15420;48.636;9.798;2022-10-31T00:28:55;9.70;;;3.73;;
2760;SDS011;15420;48.636;9.798;2022-10-31T00:31:29;6.70;;;3.77;;
2760;SDS011;15420;48.636;9.798;2022-10-31T00:33:55;6.97;;;3.90;;
2760;SDS011;15420;48.636;9.798;2022-10-31T00:36:27;8.40;;;3.47;;
2760;SDS011;15420;48.636;9.798;2022-10-31T00:38:53;10.00;;;4.07;;
2760;SDS011;15420;48.636;9.798;2022-10-31T00:41:20;6.60;;;2.90;;
2760;SDS011;15420;48.636;9.798;2022-10-31T00:43:46;6.50;;;3.20;;
2760;SDS011;15420;48.636;9.798;2022-10-31T00:46:13;4.77;;;3.40;;
2760;SDS011;15420;48.636;9.798;2022-10-31T00:48:43;3.37;;;3.07;;
2760;SDS011;15420;48.636;9.798;2022-10-31T00:51:12;6.53;;;3.67;;
2760;SDS011;15420;48.636;9.798;2022-10-31T00:53:38;4.67;;;3.20;;
2760;SDS011;15420;48.636;9.798;2022-10-31T00:56:04;4.67;;;3.40;;
2760;SDS011;15420;48.636;9.798;2022-10-31T00:58:31;11.40;;;2.80;;
2760;SDS011;15420;48.636;9.798;2022-10-31T01:00:57;5.30;;;2.93;;
2760;SDS011;15420;48.636;9.798;2022-10-31T01:03:24;5.63;;;3.40;;
2760;SDS011;15420;48.636;9.798;2022-10-31T01:06:00;3.97;;;2.97;;
2760;SDS011;15420;48.636;9.798;2022-10-31T01:08:35;4.40;;;2.90;;
2760;SDS011;15420;48.636;9.798;2022-10-31T01:11:07;5.20;;;3.00;;
2760;SDS011;15420;48.636;9.798;2022-10-31T01:13:45;5.70;;;3.37;;
2760;SDS011;15420;48.636;9.798;2022-10-31T01:16:12;4.73;;;3.00;;
2760;SDS011;15420;48.636;9.798;2022-10-31T01:18:40;3.60;;;2.97;;
2760;SDS011;15420;48.636;9.798;2022-10-31T01:21:22;6.80;;;3.20;;
2760;SDS011;15420;48.636;9.798;2022-10-31T01:23:58;11.93;;;3.90;;
2760;SDS011;15420;48.636;9.798;2022-10-31T01:26:32;6.00;;;3.50;;
2760;SDS011;15420;48.636;9.798;2022-10-31T01:29:05;4.90;;;3.33;;
2760;SDS011;15420;48.636;9.798;2022-10-31T01:31:37;6.00;;;3.47;;
2760;SDS011;15420;48.636;9.798;2022-10-31T01:34:04;11.30;;;3.53;;
2760;SDS011;15420;48.636;9.798;2022-10-31T01:36:35;6.87;;;3.00;;
2760;SDS011;15420;48.636;9.798;2022-10-31T01:39:11;4.47;;;2.87;;
2760;SDS011;15420;48.636;9.798;2022-10-31T01:41:44;9.20;;;5.43;;
2760;SDS011;15420;48.636;9.798;2022-10-31T01:51:56;5.50;;;3.30;;
2760;SDS011;15420;48.636;9.798;2022-10-31T01:54:35;10.20;;;3.47;;
2760;SDS011;15420;48.636;9.798;2022-10-31T01:57:11;7.07;;;3.37;;
2760;SDS011;15420;48.636;9.798;2022-10-31T01:59:40;6.30;;;3.50;;
2760;SDS011;15420;48.636;9.798;2022-10-31T02:02:12;8.00;;;3.50;;
2760;SDS011;15420;48.636;9.798;2022-10-31T02:04:46;5.20;;;2.90;;
2760;SDS011;15420;48.636;9.798;2022-10-31T02:07:14;6.57;;;3.57;;
2760;SDS011;15420;48.636;9.798;2022-10-31T02:09:46;8.13;;;3.70;;
2760;SDS011;15420;48.636;9.798;2022-10-31T02:12:16;7.23;;;3.53;;
2760;SDS011;15420;48.636;9.798;2022-10-31T02:14:46;3.87;;;2.80;;
2760;SDS011;15420;48.636;9.798;2022-10-31T02:17:12;7.63;;;3.90;;
2760;SDS011;15420;48.636;9.798;2022-10-31T02:20:00;4.27;;;2.90;;
2760;SDS011;15420;48.636;9.798;2022-10-31T02:36:56;3.50;;;2.70;;
2760;SDS011;15420;48.636;9.798;2022-10-31T02:39:32;4.33;;;3.13;;
2760;SDS011;15420;48.636;9.798;2022-10-31T02:42:21;3.30;;;2.97;;
2760;SDS011;15420;48.636;9.798;2022-10-31T02:47:44;6.77;;;3.17;;
2760;SDS011;15420;48.636;9.798;2022-10-31T02:50:26;5.27;;;3.27;;
2760;SDS011;15420;48.636;9.798;2022-10-31T02:53:04;6.40;;;3.37;;
2760;SDS011;15420;48.636;9.798;2022-10-31T02:58:07;7.10;;;2.73;;
2760;SDS011;15420;48.636;9.798;2022-10-31T03:12:08;3.90;;;3.00;;
2760;SDS011;15420;48.636;9.798;2022-10-31T03:14:47;7.67;;;3.30;;
2760;SDS011;15420;48.636;9.798;2022-10-31T03:20:26;7.27;;;3.40;;
2760;SDS011;15420;48.636;9.798;2022-10-31T03:23:00;6.80;;;3.47;;
2760;SDS011;15420;48.636;9.798;2022-10-31T03:25:35;7.57;;;3.40;;
2760;SDS011;15420;48.636;9.798;2022-10-31T03:28:04;8.80;;;3.40;;
2760;SDS011;15420;48.636;9.798;2022-10-31T03:30:35;4.83;;;2.70;;
2760;SDS011;15420;48.636;9.798;2022-10-31T03:33:07;3.00;;;2.10;;
2760;SDS011;15420;48.636;9.798;2022-10-31T03:35:38;6.43;;;2.50;;
2760;SDS011;15420;48.636;9.798;2022-10-31T03:38:07;6.20;;;3.67;;
2760;SDS011;15420;48.636;9.798;2022-10-31T03:40:37;5.67;;;2.83;;
2760;SDS011;15420;48.636;9.798;2022-10-31T03:43:16;4.60;;;2.80;;
2760;SDS011;15420;48.636;9.798;2022-10-31T03:45:51;6.13;;;3.00;;
2760;SDS011;15420;48.636;9.798;2022-10-31T03:48:18;5.43;;;3.20;;
2760;SDS011;15420;48.636;9.798;2022-10-31T03:53:27;4.80;;;2.80;;
2760;SDS011;15420;48.636;9.798;2022-10-31T03:56:00;4.70;;;2.97;;
2760;SDS011;15420;48.636;9.798;2022-10-31T03:58:37;4.50;;;3.17;;
2760;SDS011;15420;48.636;9.798;2022-10-31T04:01:15;8.33;;;3.57;;
2760;SDS011;15420;48.636;9.798;2022-10-31T04:03:46;5.13;;;3.37;;
2760;SDS011;15420;48.636;9.798;2022-10-31T04:06:13;5.57;;;3.00;;
2760;SDS011;15420;48.636;9.798;2022-10-31T04:08:48;6.53;;;2.57;;
2760;SDS011;15420;48.636;9.798;2022-10-31T04:11:20;6.70;;;3.63;;
2760;SDS011;15420;48.636;9.798;2022-10-31T04:13:49;6.87;;;3.43;;
2760;SDS011;15420;48.636;9.798;2022-10-31T04:16:18;5.63;;;3.33;;
2760;SDS011;15420;48.636;9.798;2022-10-31T04:18:47;3.83;;;2.83;;
2760;SDS011;15420;48.636;9.798;2022-10-31T04:21:13;8.20;;;3.23;;
2760;SDS011;15420;48.636;9.798;2022-10-31T04:23:42;5.60;;;3.00;;
2760;SDS011;15420;48.636;9.798;2022-10-31T04:26:11;7.57;;;2.93;;
2760;SDS011;15420;48.636;9.798;2022-10-31T04:28:40;6.43;;;3.07;;
2760;SDS011;15420;48.636;9.798;2022-10-31T04:31:08;5.60;;;3.07;;
2760;SDS011;15420;48.636;9.798;2022-10-31T04:33:38;7.27;;;3.43;;
2760;SDS011;15420;48.636;9.798;2022-10-31T04:36:07;6.70;;;3.37;;
2760;SDS011;15420;48.636;9.798;2022-10-31T04:38:36;4.20;;;2.60;;
2760;SDS011;15420;48.636;9.798;2022-10-31T04:41:02;8.40;;;2.80;;
2760;SDS011;15420;48.636;9.798;2022-10-31T04:43:29;6.27;;;2.90;;
2760;SDS011;15420;48.636;9.798;2022-10-31T04:45:57;4.20;;;2.90;;
2760;SDS011;15420;48.636;9.798;2022-10-31T04:48:28;3.70;;;2.70;;
2760;SDS011;15420;48.636;9.798;2022-10-31T04:51:00;5.00;;;3.13;;
2760;SDS011;15420;48.636;9.798;2022-10-31T04:53:27;6.27;;;4.33;;
2760;SDS011;15420;48.636;9.798;2022-10-31T04:55:54;5.50;;;3.07;;
2760;SDS011;15420;48.636;9.798;2022-10-31T04:58:24;9.37;;;3.37;;
2760;SDS011;15420;48.636;9.798;2022-10-31T05:00:53;13.07;;;3.40;;
2760;SDS011;15420;48.636;9.798;2022-10-31T05:03:20;4.43;;;3.40;;
2760;SDS011;15420;48.636;9.798;2022-10-31T05:05:51;6.23;;;3.17;;
2760;SDS011;15420;48.636;9.798;2022-10-31T05:08:17;7.83;;;3.30;;
2760;SDS011;15420;48.636;9.798;2022-10-31T05:10:43;6.03;;;3.27;;
2760;SDS011;15420;48.636;9.798;2022-10-31T05:13:09;6.00;;;3.00;;
2760;SDS011;15420;48.636;9.798;2022-10-31T05:15:35;6.70;;;3.60;;
2760;SDS011;15420;48.636;9.798;2022-10-31T05:18:04;3.93;;;3.00;;
2760;SDS011;15420;48.636;9.798;2022-10-31T05:20:30;6.23;;;3.23;;
2760;SDS011;15420;48.636;9.798;2022-10-31T05:22:57;3.87;;;3.10;;
2760;SDS011;15420;48.636;9.798;2022-10-31T05:25:24;3.27;;;2.50;;
2760;SDS011;15420;48.636;9.798;2022-10-31T05:27:52;5.73;;;3.57;;
2760;SDS011;15420;48.636;9.798;2022-10-31T05:30:21;4.70;;;3.20;;
2760;SDS011;15420;48.636;9.798;2022-10-31T05:32:55;6.00;;;3.57;;
2760;SDS011;15420;48.636;9.798;2022-10-31T05:35:23;4.00;;;2.80;;
2760;SDS011;15420;48.636;9.798;2022-10-31T05:37:51;3.70;;;3.03;;
2760;SDS011;15420;48.636;9.798;2022-10-31T05:40:20;6.10;;;3.13;;
2760;SDS011;15420;48.636;9.798;2022-10-31T05:42:46;4.37;;;3.07;;
2760;SDS011;15420;48.636;9.798;2022-10-31T05:45:16;6.03;;;3.53;;
2760;SDS011;15420;48.636;9.798;2022-10-31T05:47:49;4.63;;;3.10;;
2760;SDS011;15420;48.636;9.798;2022-10-31T05:50:18;7.17;;;3.40;;
2760;SDS011;15420;48.636;9.798;2022-10-31T05:52:44;5.90;;;3.20;;
2760;SDS011;15420;48.636;9.798;2022-10-31T05:55:11;11.43;;;3.80;;
2760;SDS011;15420;48.636;9.798;2022-10-31T05:57:42;7.03;;;3.20;;
2760;SDS011;15420;48.636;9.798;2022-10-31T06:00:08;5.70;;;3.57;;
2760;SDS011;15420;48.636;9.798;2022-10-31T06:02:34;6.47;;;3.30;;
2760;SDS011;15420;48.636;9.798;2022-10-31T06:05:01;6.83;;;3.97;;
2760;SDS011;15420;48.636;9.798;2022-10-31T06:07:33;5.10;;;3.50;;
2760;SDS011;15420;48.636;9.798;2022-10-31T06:10:00;5.40;;;3.40;;
2760;SDS011;15420;48.636;9.798;2022-10-31T06:12:31;5.13;;;3.30;;
2760;SDS011;15420;48.636;9.798;2022-10-31T06:15:05;5.07;;;2.90;;
2760;SDS011;15420;48.636;9.798;2022-10-31T06:17:34;7.37;;;4.27;;
2760;SDS011;15420;48.636;9.798;2022-10-31T06:20:05;7.57;;;4.70;;
2760;SDS011;15420;48.636;9.798;2022-10-31T06:22:37;6.70;;;4.17;;
2760;SDS011;15420;48.636;9.798;2022-10-31T06:25:05;9.30;;;3.87;;
2760;SDS011;15420;48.636;9.798;2022-10-31T06:27:31;9.53;;;4.50;;
2760;SDS011;15420;48.636;9.798;2022-10-31T06:29:59;8.40;;;4.47;;
2760;SDS011;15420;48.636;9.798;2022-10-31T06:32:25;3.37;;;3.07;;
2760;SDS011;15420;48.636;9.798;2022-10-31T06:34:54;9.57;;;3.23;;
2760;SDS011;15420;48.636;9.798;2022-10-31T06:37:20;5.20;;;3.10;;
2760;SDS011;15420;48.636;9.798;2022-10-31T06:39:46;5.00;;;3.50;;
2760;SDS011;15420;48.636;9.798;2022-10-31T06:42:15;7.10;;;4.47;;
2760;SDS011;15420;48.636;9.798;2022-10-31T06:44:44;6.70;;;4.50;;
2760;SDS011;15420;48.636;9.798;2022-10-31T06:47:13;13.70;;;3.50;;
2760;SDS011;15420;48.636;9.798;2022-10-31T06:49:39;8.73;;;4.20;;
2760;SDS011;15420;48.636;9.798;2022-10-31T06:52:05;4.90;;;4.13;;
2760;SDS011;15420;48.636;9.798;2022-10-31T06:54:33;6.00;;;4.00;;
2760;SDS011;15420;48.636;9.798;2022-10-31T06:56:59;7.63;;;4.30;;
2760;SDS011;15420;48.636;9.798;2022-10-31T06:59:28;5.37;;;3.47;;
2760;SDS011;15420;48.636;9.798;2022-10-31T07:01:54;13.27;;;3.90;;
2760;SDS011;15420;48.636;9.798;2022-10-31T07:04:22;10.20;;;4.10;;
2760;SDS011;15420;48.636;9.798;2022-10-31T07:06:51;6.10;;;3.50;;
2760;SDS011;15420;48.636;9.798;2022-10-31T07:09:17;5.83;;;4.00;;
2760;SDS011;15420;48.636;9.798;2022-10-31T07:11:44;10.50;;;4.50;;
2760;SDS011;15420;48.636;9.798;2022-10-31T07:14:12;6.13;;;3.57;;
2760;SDS011;15420;48.636;9.798;2022-10-31T07:16:38;4.43;;;3.70;;
2760;SDS011;15420;48.636;9.798;2022-10-31T07:19:07;4.40;;;3.87;;
2760;SDS011;15420;48.636;9.798;2022-10-31T07:21:33;10.47;;;4.07;;
2760;SDS011;15420;48.636;9.798;2022-10-31T07:23:59;5.00;;;4.00;;
2760;SDS011;15420;48.636;9.798;2022-10-31T07:26:25;6.90;;;4.00;;
2760;SDS011;15420;48.636;9.798;2022-10-31T07:28:55;5.90;;;3.93;;
2760;SDS011;15420;48.636;9.798;2022-10-31T07:31:21;9.07;;;4.20;;
2760;SDS011;15420;48.636;9.798;2022-10-31T07:33:49;4.87;;;4.07;;
2760;SDS011;15420;48.636;9.798;2022-10-31T07:36:18;5.63;;;4.30;;
2760;SDS011;15420;48.636;9.798;2022-10-31T07:38:44;7.77;;;3.80;;
2760;SDS011;15420;48.636;9.798;2022-10-31T07:41:12;9.03;;;4.37;;
2760;SDS011;15420;48.636;9.798;2022-10-31T07:43:38;12.20;;;5.60;;
2760;SDS011;15420;48.636;9.798;2022-10-31T07:46:04;6.27;;;3.90;;
2760;SDS011;15420;48.636;9.798;2022-10-31T07:48:31;7.40;;;4.50;;
2760;SDS011;15420;48.636;9.798;2022-10-31T07:50:57;5.17;;;3.93;;
2760;SDS011;15420;48.636;9.798;2022-10-31T07:53:25;7.97;;;4.17;;
2760;SDS011;15420;48.636;9.798;2022-10-31T07:55:51;7.10;;;4.00;;
2760;SDS011;15420;48.636;9.798;2022-10-31T07:58:17;5.43;;;4.50;;
2760;SDS011;15420;48.636;9.798;2022-10-31T08:00:46;7.73;;;4.67;;
2760;SDS011;15420;48.636;9.798;2022-10-31T08:03:14;6.70;;;4.93;;
2760;SDS011;15420;48.636;9.798;2022-10-31T08:05:43;8.77;;;4.80;;
2760;SDS011;15420;48.636;9.798;2022-10-31T08:08:12;6.53;;;4.40;;
2760;SDS011;15420;48.636;9.798;2022-10-31T08:10:39;6.93;;;4.87;;
2760;SDS011;15420;48.636;9.798;2022-10-31T08:13:06;11.23;;;4.73;;
2760;SDS011;15420;48.636;9.798;2022-10-31T08:15:36;5.43;;;4.53;;
2760;SDS011;15420;48.636;9.798;2022-10-31T08:18:11;5.87;;;4.23;;
2760;SDS011;15420;48.636;9.798;2022-10-31T08:20:42;7.17;;;4.77;;
2760;SDS011;15420;48.636;9.798;2022-10-31T08:23:10;7.10;;;4.30;;
2760;SDS011;15420;48.636;9.798;2022-10-31T08:25:37;5.20;;;4.07;;
2760;SDS011;15420;48.636;9.798;2022-10-31T08:28:11;7.03;;;3.87;;
2760;SDS011;15420;48.636;9.798;2022-10-31T08:30:42;7.60;;;3.90;;
2760;SDS011;15420;48.636;9.798;2022-10-31T08:33:14;10.33;;;4.23;;
2760;SDS011;15420;48.636;9.798;2022-10-31T08:35:43;7.40;;;5.10;;
2760;SDS011;15420;48.636;9.798;2022-10-31T08:38:10;10.40;;;4.60;;
2760;SDS011;15420;48.636;9.798;2022-10-31T08:40:39;6.73;;;3.80;;
2760;SDS011;15420;48.636;9.798;2022-10-31T08:43:12;10.70;;;4.00;;
2760;SDS011;15420;48.636;9.798;2022-10-31T08:45:44;9.77;;;5.00;;
2760;SDS011;15420;48.636;9.798;2022-10-31T08:48:17;7.43;;;4.33;;
2760;SDS011;15420;48.636;9.798;2022-10-31T08:50:46;7.43;;;4.30;;
2760;SDS011;15420;48.636;9.798;2022-10-31T08:53:20;9.47;;;4.97;;
2760;SDS011;15420;48.636;9.798;2022-10-31T08:55:47;6.17;;;4.53;;
2760;SDS011;15420;48.636;9.798;2022-10-31T08:58:19;9.70;;;5.93;;
2760;SDS011;15420;48.636;9.798;2022-10-31T09:00:47;10.13;;;5.50;;
2760;SDS011;15420;48.636;9.798;2022-10-31T09:03:24;8.93;;;5.10;;
2760;SDS011;15420;48.636;9.798;2022-10-31T09:06:00;9.10;;;6.50;;
2760;SDS011;15420;48.636;9.798;2022-10-31T09:11:50;8.37;;;5.13;;
2760;SDS011;15420;48.636;9.798;2022-10-31T09:14:20;8.53;;;5.50;;
2760;SDS011;15420;48.636;9.798;2022-10-31T09:16:54;8.70;;;5.93;;
2760;SDS011;15420;48.636;9.798;2022-10-31T09:19:28;8.00;;;5.70;;
2760;SDS011;15420;48.636;9.798;2022-10-31T09:21:56;8.77;;;6.20;;
2760;SDS011;15420;48.636;9.798;2022-10-31T09:24:26;11.20;;;6.80;;
2760;SDS011;15420;48.636;9.798;2022-10-31T09:26:54;10.53;;;7.00;;
2760;SDS011;15420;48.636;9.798;2022-10-31T09:29:20;12.27;;;7.67;;
2760;SDS011;15420;48.636;9.798;2022-10-31T09:31:52;17.07;;;8.00;;
2760;SDS011;15420;48.636;9.798;2022-10-31T09:34:27;9.73;;;7.50;;
2760;SDS011;15420;48.636;9.798;2022-10-31T09:36:53;11.70;;;6.90;;
2760;SDS011;15420;48.636;9.798;2022-10-31T09:39:19;10.67;;;7.37;;
2760;SDS011;15420;48.636;9.798;2022-10-31T09:41:52;11.43;;;6.90;;
2760;SDS011;15420;48.636;9.798;2022-10-31T09:44:33;9.57;;;6.43;;
2760;SDS011;15420;48.636;9.798;2022-10-31T09:50:46;13.00;;;5.97;;
2760;SDS011;15420;48.636;9.798;2022-10-31T09:56:02;11.63;;;6.90;;
2760;SDS011;15420;48.636;9.798;2022-10-31T09:58:33;9.70;;;5.80;;
2760;SDS011;15420;48.636;9.798;2022-10-31T10:01:27;9.13;;;6.17;;
2760;SDS011;15420;48.636;9.798;2022-10-31T10:06:45;8.90;;;4.80;;
2760;SDS011;15420;48.636;9.798;2022-10-31T10:09:16;7.70;;;4.10;;
2760;SDS011;15420;48.636;9.798;2022-10-31T10:19:56;7.10;;;5.17;;
2760;SDS011;15420;48.636;9.798;2022-10-31T10:25:33;8.30;;;5.00;;
2760;SDS011;15420;48.636;9.798;2022-10-31T10:30:54;10.20;;;5.17;;
2760;SDS011;15420;48.636;9.798;2022-10-31T10:33:35;6.87;;;4.80;;
2760;SDS011;15420;48.636;9.798;2022-10-31T10:36:10;9.40;;;6.43;;
2760;SDS011;15420;48.636;9.798;2022-10-31T10:41:26;10.00;;;6.60;;
2760;SDS011;15420;48.636;9.798;2022-10-31T10:43:58;8.13;;;6.13;;
2760;SDS011;15420;48.636;9.798;2022-10-31T10:46:27;8.93;;;6.80;;
2760;SDS011;15420;48.636;9.798;2022-10-31T10:58:10;7.43;;;4.97;;
2760;SDS011;15420;48.636;9.798;2022-10-31T11:00:45;6.97;;;5.07;;
2760;SDS011;15420;48.636;9.798;2022-10-31T11:03:15;6.80;;;5.20;;
2760;SDS011;15420;48.636;9.798;2022-10-31T11:08:27;7.70;;;5.07;;
2760;SDS011;15420;48.636;9.798;2022-10-31T11:11:09;7.53;;;4.80;;
2760;SDS011;15420;48.636;9.798;2022-10-31T11:13:47;8.43;;;4.60;;
2760;SDS011;15420;48.636;9.798;2022-10-31T11:16:30;6.50;;;4.70;;
2760;SDS011;15420;48.636;9.798;2022-10-31T11:19:21;9.53;;;5.10;;
2760;SDS011;15420;48.636;9.798;2022-10-31T11:21:52;7.73;;;4.97;;
2760;SDS011;15420;48.636;9.798;2022-10-31T11:24:20;5.83;;;5.23;;
2760;SDS011;15420;48.636;9.798;2022-10-31T11:27:02;9.13;;;5.53;;
2760;SDS011;15420;48.636;9.798;2022-10-31T11:29:39;7.27;;;4.60;;
2760;SDS011;15420;48.636;9.798;2022-10-31T11:32:15;7.93;;;5.00;;
2760;SDS011;15420;48.636;9.798;2022-10-31T11:34:57;8.27;;;5.70;;
2760;SDS011;15420;48.636;9.798;2022-10-31T11:37:32;6.40;;;5.53;;
2760;SDS011;15420;48.636;9.798;2022-10-31T11:40:06;6.47;;;5.20;;
2760;SDS011;15420;48.636;9.798;2022-10-31T11:42:45;6.57;;;4.87;;
2760;SDS011;15420;48.636;9.798;2022-10-31T11:45:29;13.80;;;5.63;;
2760;SDS011;15420;48.636;9.798;2022-10-31T11:48:00;6.27;;;4.93;;
2760;SDS011;15420;48.636;9.798;2022-10-31T11:53:02;7.90;;;5.07;;
2760;SDS011;15420;48.636;9.798;2022-10-31T11:55:44;9.40;;;5.30;;
2760;SDS011;15420;48.636;9.798;2022-10-31T11:58:25;8.07;;;5.27;;
2760;SDS011;15420;48.636;9.798;2022-10-31T12:00:57;6.70;;;4.77;;
2760;SDS011;15420;48.636;9.798;2022-10-31T12:06:44;9.90;;;4.60;;
2760;SDS011;15420;48.636;9.798;2022-10-31T12:08:49;10.40;;;5.40;;
2760;SDS011;15420;48.636;9.798;2022-10-31T12:19:42;8.30;;;5.00;;
2760;SDS011;15420;48.636;9.798;2022-10-31T12:47:40;7.23;;;4.70;;
2760;SDS011;15420;48.636;9.798;2022-10-31T12:50:24;5.73;;;4.13;;
2760;SDS011;15420;48.636;9.798;2022-10-31T12:53:16;7.80;;;4.20;;
2760;SDS011;15420;48.636;9.798;2022-10-31T13:04:12;6.70;;;4.60;;
2760;SDS011;15420;48.636;9.798;2022-10-31T13:06:58;10.83;;;5.57;;
2760;SDS011;15420;48.636;9.798;2022-10-31T13:09:37;15.60;;;9.17;;
2760;SDS011;15420;48.636;9.798;2022-10-31T13:12:12;12.90;;;9.10;;
2760;SDS011;15420;48.636;9.798;2022-10-31T13:14:44;23.50;;;12.87;;
2760;SDS011;15420;48.636;9.798;2022-10-31T13:17:48;17.30;;;10.03;;
2760;SDS011;15420;48.636;9.798;2022-10-31T13:20:29;13.30;;;7.57;;
2760;SDS011;15420;48.636;9.798;2022-10-31T13:25:59;8.83;;;5.63;;
2760;SDS011;15420;48.636;9.798;2022-10-31T13:29:03;12.00;;;6.00;;
2760;SDS011;15420;48.636;9.798;2022-10-31T13:31:47;14.90;;;10.27;;
2760;SDS011;15420;48.636;9.798;2022-10-31T13:34:32;15.87;;;8.23;;
2760;SDS011;15420;48.636;9.798;2022-10-31T13:45:11;20.17;;;12.73;;
2760;SDS011;15420;48.636;9.798;2022-10-31T13:47:54;13.63;;;11.37;;
2760;SDS011;15420;48.636;9.798;2022-10-31T13:50:24;13.53;;;8.47;;
2760;SDS011;15420;48.636;9.798;2022-10-31T13:53:18;13.93;;;7.53;;
2760;SDS011;15420;48.636;9.798;2022-10-31T14:01:44;9.50;;;6.97;;
2760;SDS011;15420;48.636;9.798;2022-10-31T14:07:20;15.30;;;8.10;;
2760;SDS011;15420;48.636;9.798;2022-10-31T14:12:50;14.77;;;8.70;;
2760;SDS011;15420;48.636;9.798;2022-10-31T14:15:33;14.90;;;8.70;;
2760;SDS011;15420;48.636;9.798;2022-10-31T14:18:30;14.10;;;9.20;;
2760;SDS011;15420;48.636;9.798;2022-10-31T14:20:59;17.77;;;7.40;;
2760;SDS011;15420;48.636;9.798;2022-10-31T14:28:55;9.00;;;6.00;;
2760;SDS011;15420;48.636;9.798;2022-10-31T14:31:51;12.33;;;5.80;;
2760;SDS011;15420;48.636;9.798;2022-10-31T14:34:34;11.77;;;6.30;;
2760;SDS011;15420;48.636;9.798;2022-10-31T14:40:16;13.40;;;8.80;;
2760;SDS011;15420;48.636;9.798;2022-10-31T14:51:12;13.63;;;7.80;;
2760;SDS011;15420;48.636;9.798;2022-10-31T14:53:50;10.50;;;6.73;;
2760;SDS011;15420;48.636;9.798;2022-10-31T14:56:21;7.90;;;5.67;;
2760;SDS011;15420;48.636;9.798;2022-10-31T14:59:03;10.00;;;6.47;;
2760;SDS011;15420;48.636;9.798;2022-10-31T15:01:39;14.20;;;7.20;;
2760;SDS011;15420;48.636;9.798;2022-10-31T15:04:23;14.90;;;7.80;;
2760;SDS011;15420;48.636;9.798;2022-10-31T15:07:04;11.70;;;7.00;;
2760;SDS011;15420;48.636;9.798;2022-10-31T15:09:34;10.40;;;7.20;;
2760;SDS011;15420;48.636;9.798;2022-10-31T15:14:50;13.30;;;10.03;;
2760;SDS011;15420;48.636;9.798;2022-10-31T15:17:17;12.50;;;7.60;;
2760;SDS011;15420;48.636;9.798;2022-10-31T15:19:46;9.87;;;7.30;;
2760;SDS011;15420;48.636;9.798;2022-10-31T15:22:16;11.70;;;6.57;;
2760;SDS011;15420;48.636;9.798;2022-10-31T15:24:47;11.20;;;6.87;;
2760;SDS011;15420;48.636;9.798;2022-10-31T15:27:21;10.30;;;7.87;;
2760;SDS011;15420;48.636;9.798;2022-10-31T15:29:51;15.50;;;10.53;;
2760;SDS011;15420;48.636;9.798;2022-10-31T15:32:28;15.50;;;11.87;;
2760;SDS011;15420;48.636;9.798;2022-10-31T15:35:00;16.47;;;12.40;;
2760;SDS011;15420;48.636;9.798;2022-10-31T15:37:37;15.20;;;11.83;;
2760;SDS011;15420;48.636;9.798;2022-10-31T15:40:12;16.17;;;10.97;;
2760;SDS011;15420;48.636;9.798;2022-10-31T15:42:50;16.67;;;11.00;;
2760;SDS011;15420;48.636;9.798;2022-10-31T15:45:24;15.40;;;8.43;;
2760;SDS011;15420;48.636;9.798;2022-10-31T15:47:59;11.23;;;7.10;;
2760;SDS011;15420;48.636;9.798;2022-10-31T15:53:05;11.20;;;7.23;;
2760;SDS011;15420;48.636;9.798;2022-10-31T15:55:55;11.90;;;6.43;;
2760;SDS011;15420;48.636;9.798;2022-10-31T15:58:24;13.33;;;7.40;;
2760;SDS011;15420;48.636;9.798;2022-10-31T16:00:59;10.40;;;7.20;;
2760;SDS011;15420;48.636;9.798;2022-10-31T16:03:40;17.30;;;9.00;;
2760;SDS011;15420;48.636;9.798;2022-10-31T16:06:18;18.90;;;8.93;;
2760;SDS011;15420;48.636;9.798;2022-10-31T16:08:48;11.73;;;7.87;;
2760;SDS011;15420;48.636;9.798;2022-10-31T16:16:52;21.10;;;8.87;;
2760;SDS011;15420;48.636;9.798;2022-10-31T16:19:34;18.00;;;9.80;;
2760;SDS011;15420;48.636;9.798;2022-10-31T16:22:21;19.50;;;11.83;;
2760;SDS011;15420;48.636;9.798;2022-10-31T16:25:04;16.73;;;11.13;;
2760;SDS011;15420;48.636;9.798;2022-10-31T16:27:50;20.10;;;10.00;;
2760;SDS011;15420;48.636;9.798;2022-10-31T16:33:19;11.83;;;9.07;;
2760;SDS011;15420;48.636;9.798;2022-10-31T16:35:51;18.87;;;8.33;;
2760;SDS011;15420;48.636;9.798;2022-10-31T16:38:18;15.33;;;9.70;;
2760;SDS011;15420;48.636;9.798;2022-10-31T16:40:44;17.43;;;9.97;;
2760;SDS011;15420;48.636;9.798;2022-10-31T16:43:12;24.37;;;10.07;;
2760;SDS011;15420;48.636;9.798;2022-10-31T16:45:44;15.63;;;10.07;;
2760;SDS011;15420;48.636;9.798;2022-10-31T16:48:18;15.63;;;10.53;;
2760;SDS011;15420;48.636;9.798;2022-10-31T16:50:50;19.40;;;11.53;;
2760;SDS011;15420;48.636;9.798;2022-10-31T16:53:23;17.67;;;10.80;;
2760;SDS011;15420;48.636;9.798;2022-10-31T16:55:57;15.37;;;10.40;;
2760;SDS011;15420;48.636;9.798;2022-10-31T16:58:29;15.57;;;8.60;;
2760;SDS011;15420;48.636;9.798;2022-10-31T17:01:00;16.90;;;9.43;;
2760;SDS011;15420;48.636;9.798;2022-10-31T17:03:31;13.43;;;10.73;;
2760;SDS011;15420;48.636;9.798;2022-10-31T17:05:57;16.53;;;10.97;;
2760;SDS011;15420;48.636;9.798;2022-10-31T17:08:23;19.93;;;12.60;;
2760;SDS011;15420;48.636;9.798;2022-10-31T17:10:53;19.67;;;12.63;;
2760;SDS011;15420;48.636;9.798;2022-10-31T17:13:21;20.30;;;13.13;;
2760;SDS011;15420;48.636;9.798;2022-10-31T17:15:52;21.60;;;14.77;;
2760;SDS011;15420;48.636;9.798;2022-10-31T17:18:20;25.40;;;16.67;;
2760;SDS011;15420;48.636;9.798;2022-10-31T17:20:51;20.27;;;13.73;;
2760;SDS011;15420;48.636;9.798;2022-10-31T17:23:23;23.43;;;15.40;;
2760;SDS011;15420;48.636;9.798;2022-10-31T17:25:49;28.73;;;17.73;;
2760;SDS011;15420;48.636;9.798;2022-10-31T17:28:15;28.43;;;16.90;;
2760;SDS011;15420;48.636;9.798;2022-10-31T17:30:41;33.83;;;21.50;;
2760;SDS011;15420;48.636;9.798;2022-10-31T17:33:12;26.27;;;19.10;;
2760;SDS011;15420;48.636;9.798;2022-10-31T17:35:42;24.73;;;16.47;;
2760;SDS011;15420;48.636;9.798;2022-10-31T17:38:09;27.80;;;16.10;;
2760;SDS011;15420;48.636;9.798;2022-10-31T17:40:36;27.50;;;18.50;;
2760;SDS011;15420;48.636;9.798;2022-10-31T17:43:08;25.63;;;16.00;;
2760;SDS011;15420;48.636;9.798;2022-10-31T17:45:38;35.50;;;19.00;;
2760;SDS011;15420;48.636;9.798;2022-10-31T17:48:05;33.03;;;22.20;;
2760;SDS011;15420;48.636;9.798;2022-10-31T17:50:32;39.00;;;30.17;;
2760;SDS011;15420;48.636;9.798;2022-10-31T17:52:58;36.97;;;26.10;;
2760;SDS011;15420;48.636;9.798;2022-10-31T17:55:24;44.33;;;32.07;;
2760;SDS011;15420;48.636;9.798;2022-10-31T17:58:01;103.37;;;59.03;;
2760;SDS011;15420;48.636;9.798;2022-10-31T18:00:28;103.93;;;60.80;;
2760;SDS011;15420;48.636;9.798;2022-10-31T18:02:57;52.87;;;37.47;;
2760;SDS011;15420;48.636;9.798;2022-10-31T18:05:23;47.90;;;33.20;;
2760;SDS011;15420;48.636;9.798;2022-10-31T18:07:54;37.73;;;26.67;;
2760;SDS011;15420;48.636;9.798;2022-10-31T18:10:20;40.73;;;28.83;;
2760;SDS011;15420;48.636;9.798;2022-10-31T18:12:57;43.40;;;31.03;;
2760;SDS011;15420;48.636;9.798;2022-10-31T18:15:25;70.53;;;45.53;;
2760;SDS011;15420;48.636;9.798;2022-10-31T18:17:58;65.60;;;43.83;;
2760;SDS011;15420;48.636;9.798;2022-10-31T18:20:25;51.13;;;37.07;;
2760;SDS011;15420;48.636;9.798;2022-10-31T18:22:53;49.67;;;36.67;;
2760;SDS011;15420;48.636;9.798;2022-10-31T18:25:21;38.67;;;28.47;;
2760;SDS011;15420;48.636;9.798;2022-10-31T18:27:50;37.37;;;25.23;;
2760;SDS011;15420;48.636;9.798;2022-10-31T18:30:17;42.17;;;27.07;;